^^
Station Historical Data
 
Daily Summary for April 23, 2019 Units:  English    Metric   Both
« Previous Day
Next Day »
Daily Weekly Monthly Yearly Custom
  Current: High: Low: Average:
Temperature: 4.3 °F TemperatureC °F 4.3 °F 9.9 °F
Dew Point: 2.2 °F DewpointC °F 2.2 °F 5.1 °F
Humidity: 86% Humidity% 37% 76%
Wind Speed: 1.9mph WindSpeedKMHmph 1.9mph 12mph
Wind Gust: 1.4mph WindSpeedGustKMHmph - -
WindSouth - - SSW
Pressure: 1017.1 in PressurehPa in 1011.2 in -
Precipitation: 2.0 in      
Historical Graphs
 
 
Tabular Data for April 23, 2019
Time Temperature Dew Point Pressure Wind Wind Speed Wind Gust Humidity Rainfall Rate (Hourly) solar Conditions
TemperatureC °F DewpointC °F PressurehPa in Calm     Humidity% HourlyPrecipMM in SoftwareType W/m2 Conditions
00:04 6.2 °F 5.9 °F 1011.2 in North 18.5 mph 11.6 mph 98% 1.0 in WeatherDisplay:10.37 W/m2 -RA
00:09 6.2 °F 5.9 °F 1011.2 in NNE 16.7 mph 12.9 mph 98% 1.0 in WeatherDisplay:10.37 W/m2 -RA
00:14 6.2 °F 5.9 °F 1011.2 in NNE 18.5 mph 10.1 mph 98% 1.3 in WeatherDisplay:10.37 W/m2 -RA
00:19 6.2 °F 5.9 °F 1011.2 in North 27.8 mph 15.1 mph 98% 1.3 in WeatherDisplay:10.37 W/m2 -RA
00:24 6.2 °F 5.9 °F 1011.2 in NNE 18.5 mph 14.0 mph 98% 1.5 in WeatherDisplay:10.37 W/m2 -RA
00:29 6.2 °F 5.9 °F 1011.2 in NW 22.2 mph 13.4 mph 98% 1.3 in WeatherDisplay:10.37 W/m2 -RA
00:34 6.2 °F 5.9 °F 1011.3 in NE 12.9 mph 7.9 mph 98% 1.5 in WeatherDisplay:10.37 W/m2 -RA
00:39 6.2 °F 5.9 °F 1011.3 in WNW 11.1 mph 10.8 mph 98% 1.5 in WeatherDisplay:10.37 W/m2 -RA
00:44 6.2 °F 5.9 °F 1011.3 in NNE 13.0 mph 12.2 mph 98% 1.5 in WeatherDisplay:10.37 W/m2 -RA
00:49 6.2 °F 5.9 °F 1011.7 in NW 16.7 mph 10.8 mph 98% 1.5 in WeatherDisplay:10.37 W/m2 -RA
00:54 6.2 °F 5.9 °F 1011.3 in North 16.7 mph 13.4 mph 98% 1.5 in WeatherDisplay:10.37 W/m2 -RA
00:59 6.2 °F 5.9 °F 1011.3 in NNW 11.1 mph 9.0 mph 98% 1.3 in WeatherDisplay:10.37 W/m2 -RA
01:04 6.1 °F 5.8 °F 1011.3 in NNW 14.8 mph 10.8 mph 98% 1.5 in WeatherDisplay:10.37 W/m2 -RA
01:09 5.9 °F 5.6 °F 1011.3 in WNW 16.7 mph 9.3 mph 98% 1.5 in WeatherDisplay:10.37 W/m2 -RA
01:14 5.9 °F 5.6 °F 1011.7 in NNW 14.8 mph 8.7 mph 98% 1.3 in WeatherDisplay:10.37 W/m2 -RA
01:19 5.8 °F 5.5 °F 1011.7 in NE 12.9 mph 8.2 mph 98% 1.3 in WeatherDisplay:10.37 W/m2 -RA
01:24 5.8 °F 5.5 °F 1011.7 in WNW 14.8 mph 11.6 mph 98% 1.0 in WeatherDisplay:10.37 W/m2 -RA
01:29 5.8 °F 5.5 °F 1011.7 in SSE 11.1 mph 7.9 mph 98% 1.0 in WeatherDisplay:10.37 W/m2 -RA
01:34 5.6 °F 5.3 °F 1011.7 in NE 19.5 mph 10.5 mph 98% 1.0 in WeatherDisplay:10.37 W/m2 -RA
01:39 5.5 °F 5.2 °F 1011.7 in WNW 20.4 mph 12.9 mph 98% 1.0 in WeatherDisplay:10.37 W/m2 -RA
01:44 5.5 °F 5.2 °F 1011.7 in NNE 16.3 mph 13.4 mph 98% 0.8 in WeatherDisplay:10.37 W/m2 -RA
01:49 5.5 °F 5.2 °F 1011.7 in North 7.9 mph 8.7 mph 98% 0.8 in WeatherDisplay:10.37 W/m2 -RA
01:54 5.3 °F 5.0 °F 1011.7 in North 25.9 mph 15.8 mph 98% 0.5 in WeatherDisplay:10.37 W/m2 -RA
01:59 5.3 °F 5.0 °F 1011.7 in WNW 9.7 mph 9.0 mph 98% 0.5 in WeatherDisplay:10.37 W/m2 -RA
02:04 5.3 °F 5.0 °F 1011.7 in NNE 25.9 mph 11.1 mph 98% 0.3 in WeatherDisplay:10.37 W/m2 OVC
02:09 5.3 °F 4.7 °F 1012.1 in NW 14.3 mph 11.9 mph 96% 0.3 in WeatherDisplay:10.37 W/m2 OVC
02:14 5.3 °F 4.7 °F 1011.8 in NW 9.7 mph 10.5 mph 96% 0.3 in WeatherDisplay:10.37 W/m2 OVC
02:19 5.3 °F 4.7 °F 1011.8 in NW 13.0 mph 10.1 mph 96% 0.3 in WeatherDisplay:10.37 W/m2 OVC
02:24 5.2 °F 4.6 °F 1011.8 in NW 18.5 mph 11.1 mph 96% 0.3 in WeatherDisplay:10.37 W/m2 OVC
02:29 5.2 °F 4.6 °F 1011.8 in NNE 12.9 mph 8.7 mph 96% 0.3 in WeatherDisplay:10.37 W/m2 OVC
02:34 5.2 °F 4.6 °F 1011.8 in North 16.7 mph 9.3 mph 96% 0.0 in WeatherDisplay:10.37 W/m2 OVC
02:39 5.2 °F 4.6 °F 1011.8 in NNW 11.1 mph 8.7 mph 96% 0.0 in WeatherDisplay:10.37 W/m2 OVC
02:44 5.2 °F 4.6 °F 1011.8 in NNW 9.7 mph 7.6 mph 96% 0.0 in WeatherDisplay:10.37 W/m2 OVC
02:49 5.1 °F 4.5 °F 1012.1 in NW 18.5 mph 10.1 mph 96% 0.0 in WeatherDisplay:10.37 W/m2 OVC
02:54 5.1 °F 4.5 °F 1012.1 in North 14.8 mph 9.3 mph 96% 0.0 in WeatherDisplay:10.37 W/m2 OVC
02:59 4.9 °F 4.3 °F 1012.1 in West 18.5 mph 11.9 mph 96% 0.0 in WeatherDisplay:10.37 W/m2 OVC
03:04 4.9 °F 4.3 °F 1012.1 in WNW 17.5 mph 12.9 mph 96% 0.0 in WeatherDisplay:10.37 W/m2 OVC
03:09 4.9 °F 4.3 °F 1012.1 in WNW 11.1 mph 9.7 mph 96% 0.0 in WeatherDisplay:10.37 W/m2 OVC
03:14 4.9 °F 4.3 °F 1012.1 in NNW 6.4 mph 8.2 mph 96% 0.0 in WeatherDisplay:10.37 W/m2 OVC
03:19 4.9 °F 4.3 °F 1012.1 in NNE 11.1 mph 6.8 mph 96% 0.0 in WeatherDisplay:10.37 W/m2 OVC
03:24 4.9 °F 4.3 °F 1012.1 in NNW 17.5 mph 7.9 mph 96% 0.0 in WeatherDisplay:10.37 W/m2 OVC
03:29 4.9 °F 4.3 °F 1012.1 in NW 18.5 mph 13.4 mph 96% 0.3 in WeatherDisplay:10.37 W/m2 RA
03:34 4.9 °F 4.3 °F 1012.1 in NW 11.1 mph 10.1 mph 96% 0.3 in WeatherDisplay:10.37 W/m2 RA
03:39 4.9 °F 4.3 °F 1012.5 in NW 14.8 mph 8.2 mph 96% 0.3 in WeatherDisplay:10.37 W/m2 OVC
03:44 4.9 °F 4.3 °F 1012.1 in NNW 9.3 mph 9.0 mph 96% 0.3 in WeatherDisplay:10.37 W/m2 OVC
03:49 4.9 °F 4.3 °F 1012.1 in NNE 9.7 mph 7.2 mph 96% 0.3 in WeatherDisplay:10.37 W/m2 OVC
03:54 4.9 °F 4.3 °F 1012.5 in West 9.3 mph 8.7 mph 96% 0.3 in WeatherDisplay:10.37 W/m2 OVC
03:59 4.9 °F 4.3 °F 1012.1 in NW 12.9 mph 10.1 mph 96% 0.3 in WeatherDisplay:10.37 W/m2 OVC
04:04 4.9 °F 4.3 °F 1012.1 in NNW 20.4 mph 10.5 mph 96% 0.3 in WeatherDisplay:10.37 W/m2 OVC
04:09 4.9 °F 4.3 °F 1012.1 in NE 11.1 mph 9.7 mph 96% 0.3 in WeatherDisplay:10.37 W/m2 OVC
04:14 4.9 °F 4.3 °F 1012.6 in WNW 9.3 mph 7.6 mph 96% 0.3 in WeatherDisplay:10.37 W/m2 OVC
04:19 4.9 °F 4.3 °F 1012.6 in NW 11.1 mph 7.6 mph 96% 0.3 in WeatherDisplay:10.37 W/m2 OVC
04:24 5.1 °F 4.5 °F 1012.6 in NW 9.3 mph 7.9 mph 96% 0.3 in WeatherDisplay:10.37 W/m2 OVC
04:29 5.1 °F 4.5 °F 1012.6 in WNW 11.1 mph 8.7 mph 96% 0.0 in WeatherDisplay:10.37 W/m2 OVC
04:34 5.1 °F 4.5 °F 1012.6 in NW 14.8 mph 8.7 mph 96% 0.0 in WeatherDisplay:10.37 W/m2 OVC
04:39 5.2 °F 4.6 °F 1012.6 in NW 11.1 mph 9.0 mph 96% 0.0 in WeatherDisplay:10.37 W/m2 OVC
04:44 5.2 °F 4.6 °F 1012.9 in WNW 14.8 mph 10.1 mph 96% 0.0 in WeatherDisplay:10.37 W/m2 OVC
04:49 5.2 °F 4.4 °F 1012.9 in NW 12.9 mph 10.5 mph 95% 0.0 in WeatherDisplay:10.37 W/m2 OVC
04:54 5.2 °F 4.4 °F 1012.9 in NW 18.5 mph 10.8 mph 95% 0.0 in WeatherDisplay:10.37 W/m2 OVC
04:59 5.2 °F 4.4 °F 1012.9 in West 17.5 mph 9.7 mph 95% 0.0 in WeatherDisplay:10.37 W/m2 OVC
05:04 5.2 °F 4.4 °F 1012.9 in WNW 11.1 mph 10.1 mph 95% 0.0 in WeatherDisplay:10.37 W/m2 OVC
05:09 5.3 °F 4.3 °F 1012.9 in NW 13.0 mph 10.1 mph 93% 0.0 in WeatherDisplay:10.37 W/m2 OVC
05:14 5.3 °F 4.3 °F 1012.9 in WNW 16.7 mph 9.0 mph 93% 0.0 in WeatherDisplay:10.37 W/m2 OVC
05:19 5.4 °F 4.3 °F 1012.9 in West 13.0 mph 11.1 mph 93% 0.0 in WeatherDisplay:10.37 W/m2 OVC
05:24 5.4 °F 4.3 °F 1012.9 in NW 11.1 mph 8.7 mph 93% 0.0 in WeatherDisplay:10.37 W/m2 OVC
05:29 5.5 °F 4.4 °F 1012.9 in North 14.8 mph 9.3 mph 93% 0.0 in WeatherDisplay:10.37 W/m2 OVC
05:34 5.5 °F 4.4 °F 1013.2 in West 9.3 mph 8.2 mph 93% 0.0 in WeatherDisplay:10.37 W/m2 OVC
05:39 5.5 °F 4.4 °F 1013.2 in NW 14.8 mph 10.5 mph 93% 0.0 in WeatherDisplay:10.37 W/m2 OVC
05:44 5.5 °F 4.4 °F 1013.6 in NW 11.1 mph 9.0 mph 93% 0.0 in WeatherDisplay:10.37 W/m2 OVC
05:49 5.5 °F 4.4 °F 1013.6 in West 13.0 mph 9.3 mph 93% 0.0 in WeatherDisplay:10.37 W/m2 OVC
05:54 5.6 °F 4.6 °F 1014.0 in WNW 14.8 mph 8.2 mph 93% 0.0 in WeatherDisplay:10.37 W/m2 OVC
05:59 5.6 °F 4.6 °F 1013.6 in NNW 9.3 mph 8.2 mph 93% 0.0 in WeatherDisplay:10.37 W/m2 OVC
06:04 5.6 °F 4.2 °F 1014.0 in NW 14.8 mph 8.2 mph 91% 0.0 in WeatherDisplay:10.37 W/m2 OVC
06:09 5.6 °F 4.2 °F 1014.0 in WNW 18.5 mph 7.6 mph 91% 0.0 in WeatherDisplay:10.37 W/m2 OVC
06:14 5.7 °F 4.3 °F 1014.0 in ENE 7.4 mph 6.8 mph 91% 0.0 in WeatherDisplay:10.37 W/m2 OVC
06:19 5.7 °F 4.3 °F 1014.0 in NW 14.8 mph 7.6 mph 91% 0.0 in WeatherDisplay:10.37 W/m2 OVC
06:24 5.7 °F 4.3 °F 1014.0 in NW 12.9 mph 7.9 mph 91% 0.0 in WeatherDisplay:10.37 W/m2 OVC
06:29 5.7 °F 4.3 °F 1014.4 in WNW 11.1 mph 6.8 mph 91% 0.0 in WeatherDisplay:10.37 W/m2 OVC
06:34 5.6 °F 4.2 °F 1014.7 in West 14.8 mph 9.0 mph 91% 0.0 in WeatherDisplay:10.37 W/m2 OVC
06:39 5.7 °F 4.3 °F 1014.4 in NNW 7.4 mph 8.2 mph 91% 0.0 in WeatherDisplay:10.37 W/m2 OVC
06:44 5.7 °F 4.3 °F 1014.7 in West 13.0 mph 7.2 mph 91% 0.0 in WeatherDisplay:10.37 W/m2 OVC
06:49 5.8 °F 4.4 °F 1014.4 in West 7.9 mph 9.0 mph 91% 0.0 in WeatherDisplay:10.37 W/m2 OVC
06:54 5.8 °F 4.4 °F 1014.7 in NNW 7.4 mph 8.2 mph 91% 0.0 in WeatherDisplay:10.37 W/m2 OVC
06:59 5.8 °F 4.4 °F 1014.7 in SSW 7.4 mph 6.4 mph 91% 0.0 in WeatherDisplay:10.37 W/m2 OVC
07:04 5.8 °F 4.4 °F 1015.0 in NE 9.7 mph 7.2 mph 91% 0.0 in WeatherDisplay:10.37 W/m2 OVC
07:09 5.8 °F 4.4 °F 1014.7 in North 11.1 mph 8.2 mph 91% 0.0 in WeatherDisplay:10.37 W/m2 OVC
07:14 5.8 °F 4.4 °F 1015.0 in NNW 9.3 mph 7.9 mph 91% 0.0 in WeatherDisplay:10.37 W/m2 OVC
07:19 5.9 °F 4.6 °F 1015.4 in WNW 18.5 mph 9.7 mph 91% 0.0 in WeatherDisplay:10.37 W/m2 OVC
07:24 6.1 °F 4.6 °F 1015.4 in NW 13.0 mph 9.7 mph 90% 0.0 in WeatherDisplay:10.37 W/m2 OVC
07:29 6.1 °F 4.6 °F 1015.0 in NNW 14.8 mph 9.0 mph 90% 0.0 in WeatherDisplay:10.37 W/m2 OVC
07:34 6.1 °F 4.6 °F 1015.4 in NNW 14.8 mph 9.0 mph 90% 0.0 in WeatherDisplay:10.37 W/m2 OVC
07:39 6.2 °F 4.7 °F 1015.4 in WNW 12.9 mph 12.2 mph 90% 0.0 in WeatherDisplay:10.37 W/m2 OVC
07:44 6.2 °F 4.7 °F 1015.4 in West 16.3 mph 12.2 mph 90% 0.0 in WeatherDisplay:10.37 W/m2 OVC
07:49 6.2 °F 4.7 °F 1015.4 in NW 11.1 mph 10.8 mph 90% 0.0 in WeatherDisplay:10.37 W/m2 OVC
07:54 6.3 °F 4.8 °F 1015.7 in WNW 11.1 mph 10.5 mph 90% 0.0 in WeatherDisplay:10.37 W/m2 OVC
07:59 6.3 °F 4.8 °F 1015.4 in NNE 13.0 mph 9.0 mph 90% 0.0 in WeatherDisplay:10.37 W/m2 OVC
08:04 6.1 °F 4.7 °F 1015.4 in NNW 13.0 mph 10.1 mph 91% 0.0 in WeatherDisplay:10.37 W/m2 OVC
08:09 6.2 °F 4.8 °F 1015.7 in West 11.1 mph 7.9 mph 91% 0.0 in WeatherDisplay:10.37 W/m2 OVC
08:14 6.2 °F 4.8 °F 1015.7 in NW 9.3 mph 6.8 mph 91% 0.0 in WeatherDisplay:10.37 W/m2 OVC
08:19 6.3 °F 4.9 °F 1015.7 in NNW 9.3 mph 6.8 mph 91% 0.0 in WeatherDisplay:10.37 W/m2 OVC
08:24 6.4 °F 5.1 °F 1015.4 in WNW 9.7 mph 8.2 mph 91% 0.0 in WeatherDisplay:10.37 W/m2 OVC
08:29 6.6 °F 5.2 °F 1016.0 in WNW 9.7 mph 8.2 mph 91% 0.0 in WeatherDisplay:10.37 W/m2 OVC
08:34 7.0 °F 5.6 °F 1015.7 in WNW 7.4 mph 7.6 mph 91% 0.0 in WeatherDisplay:10.37 W/m2 OVC
08:39 6.9 °F 5.1 °F 1015.7 in West 16.7 mph 11.9 mph 88% 0.0 in WeatherDisplay:10.37 W/m2 OVC
08:44 7.1 °F 5.2 °F 1016.0 in West 16.7 mph 11.1 mph 88% 0.0 in WeatherDisplay:10.37 W/m2 OVC
08:49 7.2 °F 5.3 °F 1016.0 in NNE 7.9 mph 11.6 mph 88% 0.0 in WeatherDisplay:10.37 W/m2 OVC
08:54 7.6 °F 5.4 °F 1016.0 in WNW 13.0 mph 11.1 mph 86% 0.0 in WeatherDisplay:10.37 W/m2 OVC
08:59 8.1 °F 5.9 °F 1016.0 in West 14.3 mph 9.7 mph 86% 0.0 in WeatherDisplay:10.37 W/m2 OVC
09:04 8.4 °F 6.0 °F 1016.0 in NW 18.5 mph 12.2 mph 85% 0.0 in WeatherDisplay:10.37 W/m2 BKN
09:09 8.7 °F 6.0 °F 1015.7 in West 11.1 mph 11.6 mph 83% 0.0 in WeatherDisplay:10.37 W/m2 BKN
09:14 9.0 °F 6.3 °F 1016.0 in WNW 18.5 mph 13.7 mph 83% 0.0 in WeatherDisplay:10.37 W/m2 BKN
09:19 9.2 °F 6.4 °F 1015.7 in NNE 18.5 mph 11.1 mph 83% 0.0 in WeatherDisplay:10.37 W/m2 BKN
09:24 9.9 °F 6.8 °F 1016.0 in WNW 12.9 mph 7.6 mph 81% 0.0 in WeatherDisplay:10.37 W/m2 BKN
09:29 9.7 °F 6.6 °F 1016.0 in NW 14.3 mph 12.2 mph 81% 0.0 in WeatherDisplay:10.37 W/m2 BKN
09:34 9.4 °F 6.3 °F 1016.0 in WNW 22.7 mph 13.7 mph 81% 0.0 in WeatherDisplay:10.37 W/m2 SCT
09:39 9.6 °F 6.5 °F 1016.0 in WNW 20.9 mph 10.8 mph 81% 0.0 in WeatherDisplay:10.37 W/m2 SCT
09:44 9.9 °F 6.6 °F 1016.0 in NW 12.9 mph 11.9 mph 80% 0.0 in WeatherDisplay:10.37 W/m2 SCT
09:49 10.4 °F 7.1 °F 1016.0 in West 11.1 mph 9.7 mph 80% 0.0 in WeatherDisplay:10.37 W/m2 SCT
09:54 10.4 °F 6.7 °F 1016.4 in WNW 18.5 mph 12.6 mph 78% 0.0 in WeatherDisplay:10.37 W/m2 SCT
09:59 10.7 °F 7.0 °F 1016.4 in West 14.3 mph 9.0 mph 78% 0.0 in WeatherDisplay:10.37 W/m2 SCT
10:04 11.1 °F 7.4 °F 1015.7 in West 13.0 mph 10.1 mph 78% 0.0 in WeatherDisplay:10.37 W/m2 FEW
10:09 11.2 °F 7.1 °F 1016.4 in West 16.7 mph 11.6 mph 76% 0.0 in WeatherDisplay:10.37 W/m2 FEW
10:14 10.8 °F 6.7 °F 1016.4 in NW 14.8 mph 10.5 mph 76% 0.0 in WeatherDisplay:10.37 W/m2 FEW
10:19 11.6 °F 7.3 °F 1016.0 in WNW 17.5 mph 9.3 mph 75% 0.0 in WeatherDisplay:10.37 W/m2 FEW
10:24 11.9 °F 7.6 °F 1016.0 in WNW 16.7 mph 11.1 mph 75% 0.0 in WeatherDisplay:10.37 W/m2 FEW
10:29 11.9 °F 7.4 °F 1016.4 in West 18.5 mph 12.6 mph 74% 0.0 in WeatherDisplay:10.37 W/m2 FEW
10:34 12.2 °F 7.5 °F 1016.4 in West 16.3 mph 11.1 mph 73% 0.0 in WeatherDisplay:10.37 W/m2 FEW
10:39 12.2 °F 7.1 °F 1016.4 in NW 13.0 mph 11.6 mph 71% 0.0 in WeatherDisplay:10.37 W/m2 FEW
10:44 12.6 °F 7.9 °F 1016.7 in WNW 11.1 mph 7.6 mph 73% 0.0 in WeatherDisplay:10.37 W/m2 FEW
10:49 12.8 °F 7.4 °F 1016.4 in NW 14.8 mph 9.7 mph 70% 0.0 in WeatherDisplay:10.37 W/m2 FEW
10:54 12.8 °F 7.4 °F 1016.7 in West 14.8 mph 11.6 mph 70% 0.0 in WeatherDisplay:10.37 W/m2 FEW
10:59 13.3 °F 7.9 °F 1016.7 in SW 14.8 mph 9.0 mph 70% 0.0 in WeatherDisplay:10.37 W/m2 FEW
11:04 13.3 °F 7.7 °F 1016.4 in West 9.3 mph 10.5 mph 69% 0.0 in WeatherDisplay:10.37 W/m2 CLR
11:09 13.7 °F 7.4 °F 1016.7 in NNE 16.7 mph 12.2 mph 66% 0.0 in WeatherDisplay:10.37 W/m2 CLR
11:14 13.8 °F 7.3 °F 1016.4 in WNW 12.9 mph 9.3 mph 65% 0.0 in WeatherDisplay:10.37 W/m2 CLR
11:19 14.2 °F 7.7 °F 1016.4 in NNW 18.5 mph 11.6 mph 65% 0.0 in WeatherDisplay:10.37 W/m2 CLR
11:24 14.0 °F 7.5 °F 1016.3 in West 12.9 mph 10.8 mph 65% 0.0 in WeatherDisplay:10.37 W/m2 CLR
11:29 14.7 °F 8.2 °F 1016.3 in West 11.1 mph 8.7 mph 65% 0.0 in WeatherDisplay:10.37 W/m2 CLR
11:34 14.9 °F 7.9 °F 1016.3 in WNW 14.8 mph 10.1 mph 63% 0.0 in WeatherDisplay:10.37 W/m2 CLR
11:39 14.7 °F 7.3 °F 1016.3 in NNW 19.5 mph 12.6 mph 61% 0.0 in WeatherDisplay:10.37 W/m2 CLR
11:44 15.2 °F 7.7 °F 1016.3 in WNW 14.3 mph 11.1 mph 61% 0.0 in WeatherDisplay:10.37 W/m2 CLR
11:49 15.1 °F 7.4 °F 1016.3 in NW 16.7 mph 12.6 mph 60% 0.0 in WeatherDisplay:10.37 W/m2 CLR
11:54 15.1 °F 7.6 °F 1015.9 in NNE 17.5 mph 15.1 mph 61% 0.0 in WeatherDisplay:10.37 W/m2 CLR
11:59 14.9 °F 7.4 °F 1016.3 in North 11.1 mph 11.6 mph 61% 0.0 in WeatherDisplay:10.37 W/m2 CLR
12:04 15.6 °F 8.1 °F 1015.9 in WNW 18.5 mph 10.1 mph 61% 0.0 in WeatherDisplay:10.37 W/m2 CLR
12:09 15.7 °F 7.7 °F 1015.9 in NNW 18.5 mph 11.9 mph 59% 0.0 in WeatherDisplay:10.37 W/m2 CLR
12:14 15.7 °F 6.9 °F 1016.3 in West 7.9 mph 7.6 mph 56% 0.0 in WeatherDisplay:10.37 W/m2 CLR
12:19 15.8 °F 6.8 °F 1015.9 in NNW 14.8 mph 12.2 mph 55% 0.0 in WeatherDisplay:10.37 W/m2 CLR
12:24 15.8 °F 6.8 °F 1015.9 in West 18.5 mph 14.8 mph 55% 0.0 in WeatherDisplay:10.37 W/m2 CLR
12:29 15.9 °F 6.6 °F 1015.9 in WNW 18.5 mph 15.4 mph 54% 0.0 in WeatherDisplay:10.37 W/m2 CLR
12:34 15.9 °F 6.9 °F 1015.9 in WNW 14.8 mph 16.3 mph 55% 0.0 in WeatherDisplay:10.37 W/m2 CLR
12:39 16.8 °F 7.4 °F 1015.6 in NNW 18.5 mph 11.1 mph 54% 0.0 in WeatherDisplay:10.37 W/m2 CLR
12:44 16.7 °F 6.5 °F 1015.6 in NNW 18.5 mph 13.4 mph 51% 0.0 in WeatherDisplay:10.37 W/m2 CLR
12:49 16.7 °F 6.2 °F 1015.8 in WNW 27.8 mph 12.9 mph 50% 0.0 in WeatherDisplay:10.37 W/m2 CLR
12:54 16.8 °F 6.3 °F 1015.5 in NW 11.1 mph 12.2 mph 50% 0.0 in WeatherDisplay:10.37 W/m2 CLR
12:59 16.9 °F 6.4 °F 1015.5 in NW 18.5 mph 12.9 mph 50% 0.0 in WeatherDisplay:10.37 W/m2 CLR
13:04 17.3 °F 6.8 °F 1015.5 in West 24.1 mph 11.1 mph 50% 0.0 in WeatherDisplay:10.37 W/m2 CLR
13:09 17.2 °F 6.4 °F 1015.5 in NW 14.3 mph 13.7 mph 49% 0.0 in WeatherDisplay:10.37 W/m2 CLR
13:14 17.1 °F 5.4 °F 1015.8 in West 18.5 mph 11.6 mph 46% 0.0 in WeatherDisplay:10.37 W/m2 CLR
13:19 17.7 °F 5.9 °F 1015.8 in NW 17.5 mph 9.3 mph 46% 0.0 in WeatherDisplay:10.37 W/m2 CLR
13:24 17.2 °F 5.4 °F 1015.8 in West 20.9 mph 13.7 mph 46% 0.0 in WeatherDisplay:10.37 W/m2 CLR
13:29 17.4 °F 5.7 °F 1015.8 in WSW 11.1 mph 12.2 mph 46% 0.0 in WeatherDisplay:10.37 W/m2 CLR
13:34 17.3 °F 5.2 °F 1015.8 in NE 14.8 mph 12.2 mph 45% 0.0 in WeatherDisplay:10.37 W/m2 CLR
13:39 17.2 °F 5.2 °F 1015.8 in NNW 18.5 mph 12.2 mph 45% 0.0 in WeatherDisplay:10.37 W/m2 CLR
13:44 17.7 °F 5.6 °F 1015.8 in NNW 18.5 mph 10.8 mph 45% 0.0 in WeatherDisplay:10.37 W/m2 CLR
13:49 17.8 °F 5.7 °F 1015.8 in NNE 16.7 mph 11.6 mph 45% 0.0 in WeatherDisplay:10.37 W/m2 CLR
13:54 18.3 °F 6.2 °F 1015.5 in WNW 7.9 mph 9.0 mph 45% 0.0 in WeatherDisplay:10.37 W/m2 CLR
13:59 18.1 °F 5.3 °F 1015.4 in NW 22.2 mph 12.2 mph 43% 0.0 in WeatherDisplay:10.37 W/m2 CLR
14:04 18.1 °F 4.6 °F 1015.4 in NW 16.3 mph 11.6 mph 41% 0.0 in WeatherDisplay:10.37 W/m2 CLR
14:09 18.2 °F 5.4 °F 1015.4 in West 18.5 mph 14.8 mph 43% 0.0 in WeatherDisplay:10.37 W/m2 CLR
14:14 18.2 °F 4.7 °F 1015.4 in West 14.3 mph 10.1 mph 41% 0.0 in WeatherDisplay:10.37 W/m2 CLR
14:19 18.2 °F 4.4 °F 1015.4 in West 16.7 mph 14.8 mph 40% 0.0 in WeatherDisplay:10.37 W/m2 CLR
14:24 17.8 °F 4.0 °F 1015.4 in West 14.8 mph 15.1 mph 40% 0.0 in WeatherDisplay:10.37 W/m2 CLR
14:29 18.4 °F 4.9 °F 1015.4 in NE 12.9 mph 11.6 mph 41% 0.0 in WeatherDisplay:10.37 W/m2 CLR
14:34 18.4 °F 4.6 °F 1015.4 in NW 18.5 mph 14.0 mph 40% 0.0 in WeatherDisplay:10.37 W/m2 CLR
14:39 18.3 °F 5.8 °F 1015.4 in ESE 14.8 mph 8.7 mph 44% 0.0 in WeatherDisplay:10.37 W/m2 CLR
14:44 18.2 °F 4.4 °F 1015.4 in ENE 16.7 mph 10.1 mph 40% 0.0 in WeatherDisplay:10.37 W/m2 CLR
14:49 18.3 °F 5.5 °F 1015.4 in NW 25.9 mph 12.9 mph 43% 0.0 in WeatherDisplay:10.37 W/m2 CLR
14:54 18.3 °F 4.4 °F 1015.3 in East 16.7 mph 11.1 mph 40% 0.0 in WeatherDisplay:10.37 W/m2 CLR
14:59 18.3 °F 4.4 °F 1015.3 in NNW 11.1 mph 9.7 mph 40% 0.0 in WeatherDisplay:10.37 W/m2 CLR
15:04 18.2 °F 4.4 °F 1015.3 in North 11.1 mph 10.1 mph 40% 0.0 in WeatherDisplay:10.37 W/m2 CLR
15:09 18.3 °F 4.4 °F 1015.3 in NNW 16.7 mph 9.7 mph 40% 0.0 in WeatherDisplay:10.37 W/m2 CLR
15:14 18.1 °F 4.3 °F 1015.3 in West 11.1 mph 6.8 mph 40% 0.0 in WeatherDisplay:10.37 W/m2 CLR
15:19 18.2 °F 4.7 °F 1015.3 in West 9.7 mph 9.7 mph 41% 0.0 in WeatherDisplay:10.37 W/m2 CLR
15:24 18.6 °F 5.1 °F 1015.0 in North 9.3 mph 10.5 mph 41% 0.0 in WeatherDisplay:10.37 W/m2 CLR
15:29 18.6 °F 4.7 °F 1015.0 in West 9.7 mph 6.4 mph 40% 0.0 in WeatherDisplay:10.37 W/m2 CLR
15:34 18.8 °F 4.9 °F 1015.3 in NW 11.1 mph 6.8 mph 40% 0.0 in WeatherDisplay:10.37 W/m2 CLR
15:39 18.3 °F 4.1 °F 1015.0 in NW 7.9 mph 7.9 mph 39% 0.0 in WeatherDisplay:10.37 W/m2 CLR
15:44 18.3 °F 4.1 °F 1015.3 in NW 7.9 mph 7.6 mph 39% 0.0 in WeatherDisplay:10.37 W/m2 CLR
15:49 19.1 °F 4.8 °F 1015.0 in West 7.9 mph 6.4 mph 39% 0.0 in WeatherDisplay:10.37 W/m2 CLR
15:54 18.7 °F 4.8 °F 1015.3 in North 11.1 mph 8.2 mph 40% 0.0 in WeatherDisplay:10.37 W/m2 CLR
15:59 18.7 °F 5.2 °F 1014.9 in NE 5.6 mph 6.1 mph 41% 0.0 in WeatherDisplay:10.37 W/m2 CLR
16:04 18.7 °F 4.4 °F 1014.9 in NNE 14.8 mph 9.3 mph 39% 0.0 in WeatherDisplay:10.37 W/m2 CLR
16:09 18.4 °F 4.2 °F 1014.9 in NNE 18.5 mph 10.1 mph 39% 0.0 in WeatherDisplay:10.37 W/m2 CLR
16:14 18.6 °F 4.7 °F 1014.9 in ENE 11.1 mph 8.2 mph 40% 0.0 in WeatherDisplay:10.37 W/m2 RA
16:19 18.8 °F 4.9 °F 1014.9 in ENE 9.3 mph 7.6 mph 40% 0.0 in WeatherDisplay:10.37 W/m2 RA
16:24 18.8 °F 4.9 °F 1014.9 in NE 9.3 mph 5.5 mph 40% 0.0 in WeatherDisplay:10.37 W/m2 CLR
16:29 18.8 °F 4.9 °F 1014.9 in North 11.1 mph 7.9 mph 40% 0.0 in WeatherDisplay:10.37 W/m2 CLR
16:34 18.8 °F 4.6 °F 1014.9 in NE 9.7 mph 7.9 mph 39% 0.0 in WeatherDisplay:10.37 W/m2 CLR
16:39 18.7 °F 3.7 °F 1014.9 in NNW 9.7 mph 8.7 mph 37% 0.0 in WeatherDisplay:10.37 W/m2 CLR
16:44 18.8 °F 4.6 °F 1014.9 in NNW 6.4 mph 6.1 mph 39% 0.0 in WeatherDisplay:10.37 W/m2 CLR
16:49 18.4 °F 3.4 °F 1014.9 in NNW 11.1 mph 7.6 mph 37% 0.0 in WeatherDisplay:10.37 W/m2 CLR
16:54 18.7 °F 4.8 °F 1014.9 in NNW 9.7 mph 5.8 mph 40% 0.0 in WeatherDisplay:10.37 W/m2 CLR
16:59 18.3 °F 3.3 °F 1014.8 in WNW 11.1 mph 8.2 mph 37% 0.0 in WeatherDisplay:10.37 W/m2 CLR
17:04 18.3 °F 3.3 °F 1014.8 in WNW 9.7 mph 8.2 mph 37% 0.0 in WeatherDisplay:10.37 W/m2 CLR
17:07 18.3 °F 4.1 °F 1014.8 in North 7.9 mph 7.6 mph 39% 0.0 in WeatherDisplay:10.37 W/m2 CLR
17:14 18.2 °F 4.4 °F 1014.8 in NNE 11.1 mph 8.2 mph 40% 0.0 in WeatherDisplay:10.37 W/m2 CLR
17:19 18.0 °F 4.2 °F 1014.8 in NNE 9.7 mph 6.4 mph 40% 0.0 in WeatherDisplay:10.37 W/m2 CLR
17:23 17.7 °F 3.9 °F 1014.4 in NE 5.6 mph 6.4 mph 40% 0.0 in WeatherDisplay:10.37 W/m2 CLR
18:14 16.8 °F 3.1 °F 1015.1 in NNE 6.4 mph 6.1 mph 40% 0.0 in WeatherDisplay:10.37 W/m2 CLR
18:19 16.7 °F 3.0 °F 1015.1 in NNE 11.1 mph 7.6 mph 40% 0.0 in WeatherDisplay:10.37 W/m2 CLR
18:24 16.6 °F 2.9 °F 1015.1 in ENE 9.3 mph 6.8 mph 40% 0.0 in WeatherDisplay:10.37 W/m2 CLR
18:29 14.4 °F 7.9 °F 1015.0 in North 9.3 mph 7.2 mph 65% 0.0 in WeatherDisplay:10.37 W/m2 CLR
18:34 13.7 °F 8.1 °F 1015.4 in East 7.4 mph 6.4 mph 69% 0.0 in WeatherDisplay:10.37 W/m2 CLR
18:39 13.3 °F 8.2 °F 1015.3 in ESE 5.6 mph 5.8 mph 71% 0.0 in WeatherDisplay:10.37 W/m2 CLR
18:44 12.6 °F 7.9 °F 1015.3 in East 14.8 mph 9.7 mph 73% 0.0 in WeatherDisplay:10.37 W/m2 CLR
18:49 11.9 °F 7.2 °F 1015.7 in ESE 7.4 mph 7.6 mph 73% 0.0 in WeatherDisplay:10.37 W/m2 CLR
18:54 12.1 °F 7.6 °F 1015.7 in ESE 11.1 mph 6.1 mph 74% 0.0 in WeatherDisplay:10.37 W/m2 CLR
18:59 12.2 °F 7.5 °F 1015.7 in East 11.1 mph 6.1 mph 73% 0.0 in WeatherDisplay:10.37 W/m2 CLR
19:04 11.9 °F 7.2 °F 1015.7 in ESE 9.3 mph 6.8 mph 73% 0.0 in WeatherDisplay:10.37 W/m2 CLR
19:09 11.4 °F 6.9 °F 1016.0 in ESE 7.4 mph 7.9 mph 74% 0.0 in WeatherDisplay:10.37 W/m2 CLR
19:14 11.0 °F 6.7 °F 1016.0 in ESE 11.1 mph 8.7 mph 75% 0.0 in WeatherDisplay:10.37 W/m2 CLR
19:19 10.8 °F 6.6 °F 1015.7 in ESE 5.6 mph 6.4 mph 75% 0.0 in WeatherDisplay:10.37 W/m2 CLR
19:24 10.7 °F 6.7 °F 1016.0 in East 6.4 mph 4.7 mph 76% 0.0 in WeatherDisplay:10.37 W/m2 CLR
19:29 10.4 °F 6.7 °F 1016.0 in ENE 6.4 mph 6.4 mph 78% 0.0 in WeatherDisplay:10.37 W/m2 CLR
19:34 10.1 °F 6.6 °F 1016.0 in East 5.6 mph 5.0 mph 79% 0.0 in WeatherDisplay:10.37 W/m2 CLR
19:39 9.8 °F 6.3 °F 1016.0 in ESE 3.7 mph 3.5 mph 79% 0.0 in WeatherDisplay:10.37 W/m2 CLR
19:44 9.6 °F 6.1 °F 1016.0 in East 3.7 mph 2.9 mph 79% 0.0 in WeatherDisplay:10.37 W/m2 CLR
19:49 9.2 °F 5.9 °F 1016.4 in East 11.1 mph 4.3 mph 80% 0.0 in WeatherDisplay:10.37 W/m2 CLR
19:54 9.0 °F 5.7 °F 1016.4 in ESE 3.7 mph 3.2 mph 80% 0.0 in WeatherDisplay:10.37 W/m2 CLR
19:59 8.7 °F 5.6 °F 1016.4 in SSE 3.7 mph 4.0 mph 81% 0.0 in WeatherDisplay:10.37 W/m2 CLR
20:04 8.6 °F 5.5 °F 1016.4 in ESE 6.4 mph 4.3 mph 81% 0.0 in WeatherDisplay:10.37 W/m2 CLR
20:09 8.6 °F 5.5 °F 1016.4 in ESE 6.4 mph 5.0 mph 81% 0.0 in WeatherDisplay:10.37 W/m2 CLR
20:14 8.3 °F 5.6 °F 1016.4 in ESE 5.6 mph 4.3 mph 83% 0.0 in WeatherDisplay:10.37 W/m2 CLR
20:19 8.0 °F 5.3 °F 1016.4 in ESE 3.7 mph 3.5 mph 83% 0.0 in WeatherDisplay:10.37 W/m2 CLR
20:24 7.8 °F 5.1 °F 1016.4 in SE 3.7 mph 2.9 mph 83% 0.0 in WeatherDisplay:10.37 W/m2 CLR
20:28 7.7 °F 5.0 °F 1016.4 in East 5.6 mph 3.2 mph 83% 0.0 in WeatherDisplay:10.37 W/m2 CLR
20:34 7.6 °F 4.9 °F 1016.4 in East 5.6 mph 5.8 mph 83% 0.0 in WeatherDisplay:10.37 W/m2 CLR
20:39 7.5 °F 4.8 °F 1016.7 in SSE 5.6 mph 4.0 mph 83% 0.0 in WeatherDisplay:10.37 W/m2 CLR
20:44 7.5 °F 5.2 °F 1016.7 in ESE 5.6 mph 2.9 mph 85% 0.0 in WeatherDisplay:10.37 W/m2 CLR
20:49 7.2 °F 4.8 °F 1016.7 in ESE 3.2 mph 2.6 mph 85% 0.0 in WeatherDisplay:10.37 W/m2 CLR
20:54 7.1 °F 4.7 °F 1016.7 in SE 5.6 mph 4.7 mph 85% 0.0 in WeatherDisplay:10.37 W/m2 CLR
20:59 7.1 °F 4.9 °F 1017.1 in SE 7.4 mph 6.1 mph 86% 0.0 in WeatherDisplay:10.37 W/m2 CLR
21:04 6.9 °F 4.7 °F 1016.7 in SE 6.4 mph 6.8 mph 86% 0.0 in WeatherDisplay:10.37 W/m2 CLR
21:07 6.8 °F 4.6 °F 1017.1 in ESE 9.7 mph 6.1 mph 86% 0.0 in WeatherDisplay:10.37 W/m2 CLR
21:14 6.6 °F 4.4 °F 1017.1 in ESE 5.6 mph 4.3 mph 86% 0.0 in WeatherDisplay:10.37 W/m2 CLR
21:19 6.6 °F 4.4 °F 1016.7 in SE 3.7 mph 4.0 mph 86% 0.0 in WeatherDisplay:10.37 W/m2 CLR
21:24 6.3 °F 4.1 °F 1017.1 in ESE 5.6 mph 4.0 mph 86% 0.0 in WeatherDisplay:10.37 W/m2 CLR
21:29 6.2 °F 4.1 °F 1017.1 in SSE 6.4 mph 4.3 mph 86% 0.0 in WeatherDisplay:10.37 W/m2 CLR
21:34 6.1 °F 3.9 °F 1017.1 in ESE 5.6 mph 4.0 mph 86% 0.0 in WeatherDisplay:10.37 W/m2 CLR
21:39 5.9 °F 3.7 °F 1017.1 in SSE 3.2 mph 2.6 mph 86% 0.0 in WeatherDisplay:10.37 W/m2 CLR
21:44 5.8 °F 3.6 °F 1017.1 in ESE 3.7 mph 2.9 mph 86% 0.0 in WeatherDisplay:10.37 W/m2 CLR
21:49 5.7 °F 3.6 °F 1017.1 in SSE 9.7 mph 3.2 mph 86% 0.0 in WeatherDisplay:10.37 W/m2 CLR
21:54 5.6 °F 3.4 °F 1017.1 in SSE 3.7 mph 3.5 mph 86% 0.0 in WeatherDisplay:10.37 W/m2 CLR
21:59 5.6 °F 3.4 °F 1017.1 in ESE 3.7 mph 3.2 mph 86% 0.0 in WeatherDisplay:10.37 W/m2 CLR
22:04 5.5 °F 3.3 °F 1017.1 in SE 3.7 mph 2.9 mph 86% 0.0 in WeatherDisplay:10.37 W/m2 CLR
22:09 5.3 °F 3.2 °F 1017.1 in SSE 3.2 mph 1.4 mph 86% 0.0 in WeatherDisplay:10.37 W/m2 CLR
22:14 5.3 °F 3.2 °F 1017.1 in ESE 3.2 mph 2.1 mph 86% 0.0 in WeatherDisplay:10.37 W/m2 CLR
22:19 5.1 °F 2.9 °F 1017.1 in South 5.6 mph 3.5 mph 86% 0.0 in WeatherDisplay:10.37 W/m2 CLR
22:24 5.1 °F 2.9 °F 1017.5 in SE 3.7 mph 2.6 mph 86% 0.0 in WeatherDisplay:10.37 W/m2 CLR
22:29 5.1 °F 2.9 °F 1017.1 in SSE 5.6 mph 1.8 mph 86% 0.0 in WeatherDisplay:10.37 W/m2 CLR
22:34 4.9 °F 2.8 °F 1017.5 in South 3.7 mph 1.4 mph 86% 0.0 in WeatherDisplay:10.37 W/m2 CLR
22:39 4.7 °F 2.6 °F 1017.1 in SSE 3.7 mph 1.8 mph 86% 0.0 in WeatherDisplay:10.37 W/m2 CLR
22:44 4.7 °F 2.6 °F 1017.1 in SE 3.7 mph 1.8 mph 86% 0.0 in WeatherDisplay:10.37 W/m2 CLR
22:49 4.7 °F 2.6 °F 1017.5 in ESE 3.7 mph 1.4 mph 86% 0.0 in WeatherDisplay:10.37 W/m2 CLR
22:54 4.4 °F 2.3 °F 1017.5 in ESE 1.9 mph 1.1 mph 86% 0.0 in WeatherDisplay:10.37 W/m2 CLR
22:59 4.4 °F 2.3 °F 1017.5 in ESE 3.7 mph 0.6 mph 86% 0.0 in WeatherDisplay:10.37 W/m2 CLR
23:04 4.3 °F 2.2 °F 1017.5 in SE 3.7 mph 1.8 mph 86% 0.0 in WeatherDisplay:10.37 W/m2 CLR
23:09 4.4 °F 2.3 °F 1017.5 in ESE 3.2 mph 2.6 mph 86% 0.0 in WeatherDisplay:10.37 W/m2 CLR
23:14 4.4 °F 2.3 °F 1017.5 in ESE 5.6 mph 4.0 mph 86% 0.0 in WeatherDisplay:10.37 W/m2 CLR
23:19 4.4 °F 2.3 °F 1017.5 in SSE 3.7 mph 1.8 mph 86% 0.0 in WeatherDisplay:10.37 W/m2 CLR
23:24 4.4 °F 2.3 °F 1017.5 in South 1.9 mph 1.8 mph 86% 0.0 in WeatherDisplay:10.37 W/m2 CLR
23:29 4.3 °F 2.2 °F 1017.1 in South 1.9 mph 1.4 mph 86% 0.0 in WeatherDisplay:10.37 W/m2 CLR
Juneau County Weather
Compliments of Weather Underground - 3.5 mb